Time;durP1;ratioP1;P1;durP2;ratioP2;P2;SDS_P1;SDS_P2;PMS_P1;PMS_P2;Temp;Humidity;BMP_temperature;BMP_pressure;BME280_temperature;BME280_humidity;BME280_pressure;Samples;Min_cycle;Max_cycle;Signal;HPM_P1;HPM_P2
2021/07/10 00:02:10;;;;;;;1.13;1.02;;;27.30;79.40;;;;;;5051001;28;20041;-82
2021/07/10 00:04:36;;;;;;;0.88;0.88;;;27.40;79.30;;;;;;5050990;28;20091;-79
2021/07/10 00:07:04;;;;;;;1.13;1.08;;;27.30;79.40;;;;;;5050478;28;20124;-79
2021/07/10 00:09:30;;;;;;;1.13;1.02;;;27.40;79.80;;;;;;5050908;28;20031;-79
2021/07/10 00:11:56;;;;;;;1.35;1.23;;;27.50;79.50;;;;;;5051086;28;20041;-79
2021/07/10 00:14:22;;;;;;;0.60;0.60;;;27.50;79.40;;;;;;5032829;28;20401;-80
2021/07/10 00:16:48;;;;;;;1.13;1.02;;;27.30;80.40;;;;;;5050855;28;20037;-79
2021/07/10 00:19:14;;;;;;;0.52;0.52;;;27.20;81.10;;;;;;5051117;28;20033;-79
2021/07/10 00:21:40;;;;;;;0.80;0.80;;;27.20;80.20;;;;;;5050881;28;20405;-81
2021/07/10 00:24:06;;;;;;;5.00;2.00;;;27.20;80.50;;;;;;5050633;28;20124;-80
2021/07/10 00:26:32;;;;;;;1.85;1.40;;;27.10;80.70;;;;;;5050411;28;20037;-81
2021/07/10 00:28:59;;;;;;;0.88;0.88;;;27.20;81.20;;;;;;5050415;28;20029;-78
2021/07/10 00:31:25;;;;;;;0.60;0.60;;;27.20;81.10;;;;;;5032780;28;20037;-78
2021/07/10 00:33:51;;;;;;;0.80;0.80;;;27.20;81.60;;;;;;5050637;28;20029;-79
2021/07/10 00:36:16;;;;;;;1.13;1.02;;;27.10;81.10;;;;;;5049837;28;20087;-78
2021/07/10 00:38:42;;;;;;;0.60;0.60;;;27.10;81.00;;;;;;5050620;28;20133;-78
2021/07/10 00:41:08;;;;;;;0.60;0.60;;;27.10;80.60;;;;;;5050549;28;20094;-76
2021/07/10 00:43:34;;;;;;;0.80;0.80;;;27.00;81.40;;;;;;5032597;28;20516;-83
2021/07/10 00:45:59;;;;;;;0.98;0.90;;;26.70;82.00;;;;;;5050423;28;20722;-76
2021/07/10 00:48:25;;;;;;;1.33;1.23;;;26.80;81.70;;;;;;5032501;28;20067;-76
2021/07/10 00:50:51;;;;;;;4.13;3.72;;;26.70;82.00;;;;;;5053554;28;20033;-78
2021/07/10 00:53:17;;;;;;;2.70;2.45;;;26.80;81.70;;;;;;5036223;28;20033;-76
2021/07/10 00:55:43;;;;;;;4.47;1.85;;;26.90;81.40;;;;;;5062759;28;20098;-77
2021/07/10 00:58:10;;;;;;;0.60;0.60;;;26.90;81.70;;;;;;5073883;28;20037;-77
2021/07/10 01:00:37;;;;;;;0.85;0.85;;;26.90;80.90;;;;;;5073698;28;20452;-77
2021/07/10 01:03:03;;;;;;;3.58;1.45;;;27.00;80.90;;;;;;5073920;28;20040;-78
2021/07/10 01:05:34;;;;;;;0.82;0.80;;;27.00;80.90;;;;;;5074083;28;20032;-78
2021/07/10 01:08:00;;;;;;;0.60;0.60;;;26.90;80.80;;;;;;5073454;28;20039;-78
2021/07/10 01:10:26;;;;;;;2.80;2.25;;;26.90;81.10;;;;;;5073754;28;20040;-78
2021/07/10 01:12:54;;;;;;;0.90;0.88;;;26.70;81.30;;;;;;5056068;28;20044;-80
2021/07/10 01:15:25;;;;;;;0.60;0.60;;;26.70;81.60;;;;;;5073880;28;20388;-78
2021/07/10 01:17:53;;;;;;;1.02;0.82;;;26.60;81.90;;;;;;5073189;28;20032;-80
2021/07/10 01:20:21;;;;;;;0.70;0.70;;;26.60;82.30;;;;;;5073603;28;20028;-78
2021/07/10 01:22:49;;;;;;;19.92;1.35;;;26.70;82.30;;;;;;5055112;28;20047;-78
2021/07/10 01:25:18;;;;;;;0.63;0.63;;;26.70;82.50;;;;;;5073690;28;20039;-78
2021/07/10 01:27:44;;;;;;;0.90;0.90;;;26.60;83.30;;;;;;5073431;28;20040;-77
2021/07/10 01:30:13;;;;;;;0.63;0.63;;;26.60;83.30;;;;;;5073263;28;20025;-77
2021/07/10 01:32:40;;;;;;;0.60;0.60;;;26.60;83.10;;;;;;5055263;28;20042;-79
2021/07/10 01:35:08;;;;;;;0.80;0.80;;;26.60;82.90;;;;;;5055850;28;20421;-77
2021/07/10 01:37:33;;;;;;;1.30;1.15;;;26.60;82.90;;;;;;5072842;28;20039;-76
2021/07/10 01:39:59;;;;;;;1.83;1.25;;;26.60;82.80;;;;;;5073728;28;20028;-77
2021/07/10 01:42:25;;;;;;;0.60;0.60;;;26.50;82.80;;;;;;5055489;28;20072;-77
2021/07/10 01:44:51;;;;;;;0.73;0.70;;;26.50;82.60;;;;;;5072991;28;20060;-76
2021/07/10 01:47:18;;;;;;;1.17;1.08;;;26.50;82.80;;;;;;5073151;28;20094;-78
2021/07/10 01:49:44;;;;;;;0.60;0.60;;;26.50;82.80;;;;;;5072975;28;20149;-78
2021/07/10 01:52:10;;;;;;;1.25;1.15;;;26.50;82.70;;;;;;5072910;28;20029;-78
2021/07/10 01:54:36;;;;;;;0.63;0.63;;;26.40;83.00;;;;;;5073278;28;20032;-76
2021/07/10 01:57:10;;;;;;;0.88;0.80;;;26.20;83.10;;;;;;5054668;28;20057;-77
2021/07/10 01:59:37;;;;;;;0.93;0.90;;;26.20;83.30;;;;;;5052699;28;20033;-79
2021/07/10 02:02:03;;;;;;;0.80;0.80;;;26.20;83.60;;;;;;5051790;28;20125;-79
2021/07/10 02:04:29;;;;;;;0.60;0.60;;;26.30;83.80;;;;;;5052646;28;20029;-77
2021/07/10 02:06:55;;;;;;;0.80;0.80;;;26.40;83.80;;;;;;5052361;28;20040;-78
2021/07/10 02:09:20;;;;;;;0.70;0.70;;;26.40;83.70;;;;;;5052839;28;20037;-78
2021/07/10 02:11:49;;;;;;;0.95;0.95;;;26.30;84.40;;;;;;5052772;28;20029;-79
2021/07/10 02:14:15;;;;;;;0.80;0.80;;;26.10;85.20;;;;;;5052489;28;20072;-75
2021/07/10 02:16:42;;;;;;;1.33;1.23;;;26.10;85.50;;;;;;5052624;28;20477;-78
2021/07/10 02:19:08;;;;;;;0.82;0.82;;;26.20;85.40;;;;;;5052230;28;20396;-80
2021/07/10 02:21:34;;;;;;;2.13;1.25;;;26.10;85.30;;;;;;5034287;28;20045;-80
2021/07/10 02:23:59;;;;;;;1.85;1.67;;;26.30;85.10;;;;;;5052363;28;20170;-80
2021/07/10 02:26:25;;;;;;;2.05;1.08;;;26.20;85.60;;;;;;5018246;28;20037;-79
2021/07/10 02:28:51;;;;;;;4.65;1.42;;;26.10;86.20;;;;;;5052374;28;20040;-78
2021/07/10 02:31:17;;;;;;;0.68;0.68;;;26.20;86.40;;;;;;5052374;28;20120;-79
2021/07/10 02:33:43;;;;;;;0.70;0.70;;;26.10;86.60;;;;;;5051898;28;20061;-80
2021/07/10 02:36:09;;;;;;;0.60;0.60;;;26.10;86.60;;;;;;5034119;28;20128;-80
2021/07/10 02:38:35;;;;;;;0.70;0.70;;;26.10;86.90;;;;;;5033641;28;20086;-78
2021/07/10 02:41:01;;;;;;;1.17;1.08;;;26.10;87.00;;;;;;5034619;28;20133;-81
2021/07/10 02:43:27;;;;;;;4.03;1.40;;;26.10;87.10;;;;;;5051530;28;20107;-79
2021/07/10 02:45:53;;;;;;;1.25;0.77;;;26.20;87.20;;;;;;5052127;28;20540;-82
2021/07/10 02:48:19;;;;;;;1.02;0.93;;;25.80;87.80;;;;;;5052179;28;20091;-78
2021/07/10 02:50:45;;;;;;;4.85;2.72;;;25.10;90.30;;;;;;5034303;28;20499;-78
2021/07/10 02:53:10;;;;;;;0.88;0.88;;;24.90;90.90;;;;;;5051299;28;20037;-78
2021/07/10 02:55:36;;;;;;;1.45;1.35;;;25.00;91.10;;;;;;5038942;28;20109;-78
2021/07/10 02:58:03;;;;;;;1.45;1.35;;;25.00;91.30;;;;;;5071694;28;20082;-78
2021/07/10 03:00:29;;;;;;;1.00;1.00;;;25.10;91.00;;;;;;5071525;28;20480;-76
2021/07/10 03:02:59;;;;;;;0.90;0.90;;;25.40;91.10;;;;;;5071461;28;20128;-77
2021/07/10 03:05:27;;;;;;;1.23;1.13;;;25.30;90.90;;;;;;5072149;28;20081;-79
2021/07/10 03:07:53;;;;;;;1.27;1.17;;;25.60;90.90;;;;;;5071195;28;20381;-78
2021/07/10 03:10:22;;;;;;;1.42;1.20;;;25.70;91.00;;;;;;5071571;28;20628;-77
2021/07/10 03:12:48;;;;;;;1.25;1.15;;;25.60;91.00;;;;;;5071236;28;20039;-79
2021/07/10 03:15:16;;;;;;;1.05;1.00;;;25.80;91.00;;;;;;5071391;28;20037;-78
2021/07/10 03:17:43;;;;;;;1.33;1.08;;;25.80;91.10;;;;;;5071682;28;20131;-79
2021/07/10 03:20:09;;;;;;;0.70;0.70;;;25.70;91.10;;;;;;5071338;28;20052;-80
2021/07/10 03:22:36;;;;;;;0.85;0.85;;;25.90;90.90;;;;;;5071115;28;20067;-82
2021/07/10 03:25:07;;;;;;;2.13;1.70;;;25.80;90.90;;;;;;5071991;28;20376;-82
2021/07/10 03:27:33;;;;;;;0.95;0.93;;;25.70;91.10;;;;;;5071285;28;20048;-77
2021/07/10 03:29:59;;;;;;;1.63;1.52;;;25.80;91.30;;;;;;5070858;28;20036;-76
2021/07/10 03:32:25;;;;;;;3.30;2.00;;;25.70;91.20;;;;;;5071478;28;20377;-82
2021/07/10 03:34:51;;;;;;;1.48;1.38;;;25.70;91.40;;;;;;5071255;28;20559;-80
2021/07/10 03:37:17;;;;;;;2.55;1.92;;;25.80;91.50;;;;;;5071245;28;20055;-82
2021/07/10 03:39:43;;;;;;;1.75;1.65;;;25.80;91.50;;;;;;5071133;28;20088;-78
2021/07/10 03:42:08;;;;;;;3.05;1.52;;;25.70;91.70;;;;;;5071503;28;20110;-80
2021/07/10 03:44:34;;;;;;;1.15;1.08;;;25.70;91.70;;;;;;5070585;28;20037;-78
2021/07/10 03:47:01;;;;;;;0.90;0.90;;;25.60;91.60;;;;;;5071252;28;20041;-78
2021/07/10 03:49:26;;;;;;;0.77;0.77;;;25.70;91.50;;;;;;5070781;28;20484;-79
2021/07/10 03:51:53;;;;;;;1.10;1.05;;;25.80;91.50;;;;;;5071231;28;20029;-78
2021/07/10 03:54:18;;;;;;;0.70;0.70;;;25.90;91.50;;;;;;5071314;28;20037;-79
2021/07/10 03:56:44;;;;;;;0.90;0.88;;;25.80;91.60;;;;;;5057955;28;20098;-77
2021/07/10 03:59:10;;;;;;;5.55;2.42;;;25.20;92.60;;;;;;5050699;28;20068;-81
2021/07/10 04:01:36;;;;;;;1.80;1.45;;;25.30;93.00;;;;;;5050946;28;20481;-78
2021/07/10 04:04:03;;;;;;;1.13;0.90;;;25.10;93.00;;;;;;5051015;28;20112;-80
2021/07/10 04:06:28;;;;;;;0.85;0.85;;;24.50;94.40;;;;;;5050868;28;20025;-76
2021/07/10 04:08:54;;;;;;;1.52;1.45;;;24.70;94.70;;;;;;5050538;28;20052;-77
2021/07/10 04:11:20;;;;;;;1.45;1.30;;;25.20;94.10;;;;;;5051171;28;20044;-79
2021/07/10 04:13:46;;;;;;;1.13;1.10;;;25.40;93.40;;;;;;5050823;28;20033;-80
2021/07/10 04:16:12;;;;;;;1.13;1.02;;;25.70;93.00;;;;;;5050910;28;20033;-79
2021/07/10 04:18:37;;;;;;;0.93;0.90;;;25.80;92.60;;;;;;5050349;28;20086;-79
2021/07/10 04:21:04;;;;;;;1.38;1.27;;;26.00;92.50;;;;;;5050910;28;20501;-79
2021/07/10 04:23:31;;;;;;;0.73;0.73;;;26.10;92.10;;;;;;5050673;28;20071;-79
2021/07/10 04:25:57;;;;;;;1.48;1.23;;;26.30;91.70;;;;;;5054346;28;20102;-80
2021/07/10 04:28:23;;;;;;;1.42;1.17;;;26.30;91.50;;;;;;5054014;28;20419;-80
2021/07/10 04:30:49;;;;;;;1.08;0.85;;;26.20;91.50;;;;;;5054913;28;20036;-79
2021/07/10 04:33:15;;;;;;;0.90;0.90;;;26.10;91.70;;;;;;5054412;28;20029;-79
2021/07/10 04:35:41;;;;;;;1.77;1.25;;;25.90;92.10;;;;;;5054526;28;20051;-83
2021/07/10 04:38:06;;;;;;;0.75;0.75;;;25.80;92.60;;;;;;5053937;28;20094;-81
2021/07/10 04:40:32;;;;;;;0.73;0.73;;;25.80;92.60;;;;;;5054297;28;20389;-82
2021/07/10 04:42:58;;;;;;;0.73;0.73;;;25.90;92.50;;;;;;5036641;28;20334;-81
2021/07/10 04:45:24;;;;;;;1.48;1.23;;;25.60;92.90;;;;;;5054214;28;20516;-79
2021/07/10 04:47:50;;;;;;;0.93;0.90;;;25.60;93.20;;;;;;5053974;28;20558;-79
2021/07/10 04:50:16;;;;;;;1.23;1.13;;;25.30;94.10;;;;;;5054181;28;20029;-80
2021/07/10 04:52:43;;;;;;;3.20;1.50;;;25.70;93.60;;;;;;5054167;28;20036;-78
2021/07/10 04:55:10;;;;;;;0.70;0.70;;;26.00;92.90;;;;;;5054322;28;20045;-80
2021/07/10 04:57:36;;;;;;;0.90;0.90;;;26.20;92.30;;;;;;5072197;28;20032;-78
2021/07/10 05:00:05;;;;;;;1.33;0.93;;;26.20;92.00;;;;;;5074049;28;20081;-80
2021/07/10 05:02:31;;;;;;;1.70;1.58;;;26.00;92.90;;;;;;5073973;28;20048;-79
2021/07/10 05:04:57;;;;;;;1.05;0.95;;;26.30;92.20;;;;;;5073554;28;20025;-80
2021/07/10 05:07:23;;;;;;;0.80;0.80;;;26.50;91.60;;;;;;5074004;28;20047;-80
2021/07/10 05:09:49;;;;;;;1.08;1.00;;;26.60;91.40;;;;;;5055893;28;20450;-80
2021/07/10 05:12:16;;;;;;;12.65;1.02;;;26.70;91.20;;;;;;5073506;28;20506;-77
2021/07/10 05:14:42;;;;;;;1.15;1.05;;;26.80;91.30;;;;;;5073688;28;20086;-78
2021/07/10 05:17:08;;;;;;;0.70;0.70;;;26.80;91.20;;;;;;5073737;28;20020;-80
2021/07/10 05:19:33;;;;;;;0.82;0.82;;;26.60;90.90;;;;;;5073406;28;20134;-82
2021/07/10 05:21:59;;;;;;;1.35;1.25;;;26.50;91.30;;;;;;5073258;28;20032;-79
2021/07/10 05:24:25;;;;;;;1.00;0.95;;;26.60;91.20;;;;;;5073520;28;20471;-79
2021/07/10 05:26:51;;;;;;;1.58;1.48;;;26.90;91.00;;;;;;5073609;28;20020;-79
2021/07/10 05:29:17;;;;;;;1.20;1.10;;;26.90;90.80;;;;;;5073111;28;20040;-80
2021/07/10 05:31:43;;;;;;;1.38;1.25;;;26.90;90.80;;;;;;5038614;28;20595;-78
2021/07/10 05:34:08;;;;;;;0.73;0.73;;;26.90;90.80;;;;;;5073042;28;20504;-78
2021/07/10 05:36:34;;;;;;;1.95;1.77;;;26.90;90.90;;;;;;5073333;28;20041;-78
2021/07/10 05:39:00;;;;;;;0.60;0.60;;;27.10;90.50;;;;;;5073044;28;20647;-80
2021/07/10 05:41:26;;;;;;;1.00;0.80;;;27.20;90.30;;;;;;5072900;28;20064;-81
2021/07/10 05:43:52;;;;;;;0.60;0.60;;;27.20;90.10;;;;;;5073038;28;20098;-81
2021/07/10 05:46:17;;;;;;;4.57;1.38;;;27.20;90.20;;;;;;5073235;28;20052;-80
2021/07/10 05:48:43;;;;;;;0.60;0.60;;;27.10;90.10;;;;;;5073244;28;20068;-79
2021/07/10 05:51:10;;;;;;;1.10;1.00;;;27.10;90.20;;;;;;5072369;28;20024;-78
2021/07/10 05:53:36;;;;;;;1.70;1.15;;;27.10;90.20;;;;;;5055010;28;20493;-80
2021/07/10 05:56:02;;;;;;;9.30;3.33;;;27.30;90.10;;;;;;5069113;28;20060;-83
2021/07/10 05:58:28;;;;;;;0.52;0.52;;;27.40;90.00;;;;;;5052639;28;20072;-82
2021/07/10 06:00:53;;;;;;;0.75;0.75;;;27.50;89.30;;;;;;5035016;28;20119;-84
2021/07/10 06:03:19;;;;;;;1.38;1.25;;;27.40;88.90;;;;;;5052715;28;20045;-82
2021/07/10 06:05:45;;;;;;;0.70;0.70;;;27.50;88.70;;;;;;5034496;28;20029;-79
2021/07/10 06:08:10;;;;;;;0.80;0.80;;;27.60;88.50;;;;;;5052558;28;20049;-82
2021/07/10 06:10:36;;;;;;;0.60;0.60;;;27.70;87.80;;;;;;5034945;28;20037;-78
2021/07/10 06:13:02;;;;;;;0.70;0.70;;;27.70;87.20;;;;;;5052525;28;20029;-82
2021/07/10 06:15:28;;;;;;;0.50;0.50;;;27.80;87.10;;;;;;5052795;28;20029;-82
2021/07/10 06:17:54;;;;;;;0.90;0.88;;;27.90;86.90;;;;;;5052285;28;20029;-79
2021/07/10 06:20:22;;;;;;;1.38;1.25;;;27.80;87.20;;;;;;5052660;28;20064;-82
2021/07/10 06:22:49;;;;;;;0.52;0.52;;;27.70;87.80;;;;;;5051474;28;20052;-80
2021/07/10 06:25:15;;;;;;;0.60;0.60;;;27.50;88.00;;;;;;5052259;28;20423;-81
2021/07/10 06:27:43;;;;;;;0.52;0.52;;;27.50;87.80;;;;;;5052558;28;20044;-81
2021/07/10 06:30:11;;;;;;;0.60;0.60;;;27.80;87.60;;;;;;5052395;28;20086;-77
2021/07/10 06:32:38;;;;;;;1.02;0.75;;;27.70;86.80;;;;;;5052297;28;20029;-78
2021/07/10 06:35:05;;;;;;;2.05;0.80;;;27.50;87.40;;;;;;5052076;28;20044;-78
2021/07/10 06:37:31;;;;;;;1.30;1.20;;;27.70;87.70;;;;;;5051900;28;20029;-79
2021/07/10 06:39:56;;;;;;;0.93;0.82;;;27.70;87.70;;;;;;5034339;28;20048;-79
2021/07/10 06:42:22;;;;;;;3.50;1.58;;;27.90;86.30;;;;;;5052186;28;20033;-79
2021/07/10 06:44:48;;;;;;;0.70;0.65;;;27.70;87.30;;;;;;5051143;28;20116;-79
2021/07/10 06:47:15;;;;;;;1.27;1.02;;;28.00;86.10;;;;;;5047849;28;20421;-79
2021/07/10 06:49:40;;;;;;;1.95;1.67;;;27.80;86.00;;;;;;5045051;28;20029;-79
2021/07/10 06:52:07;;;;;;;2.30;2.10;;;28.10;85.10;;;;;;5044575;28;20040;-79
2021/07/10 06:54:33;;;;;;;0.65;0.65;;;28.10;85.50;;;;;;5044046;28;20358;-78
2021/07/10 06:56:59;;;;;;;1.10;1.00;;;28.30;84.50;;;;;;5045007;28;20091;-78
2021/07/10 06:59:25;;;;;;;1.75;1.00;;;28.40;84.00;;;;;;5024388;28;20025;-78
2021/07/10 07:01:51;;;;;;;1.40;1.13;;;28.50;83.00;;;;;;5040092;28;20564;-79
2021/07/10 07:04:18;;;;;;;1.17;1.08;;;28.60;82.40;;;;;;5041749;28;20017;-78
2021/07/10 07:06:43;;;;;;;1.92;1.40;;;28.40;82.60;;;;;;5021858;28;20040;-78
2021/07/10 07:09:09;;;;;;;0.85;0.85;;;28.40;82.90;;;;;;5047736;28;20045;-76
2021/07/10 07:11:35;;;;;;;0.70;0.70;;;28.50;82.00;;;;;;5039463;28;20069;-76
2021/07/10 07:14:00;;;;;;;0.40;0.40;;;28.70;81.40;;;;;;5038867;28;20071;-78
2021/07/10 07:16:27;;;;;;;1.55;1.25;;;28.50;82.10;;;;;;5042407;28;20120;-78
2021/07/10 07:18:52;;;;;;;1.00;0.90;;;28.60;82.40;;;;;;5039285;28;20044;-78
2021/07/10 07:21:18;;;;;;;1.00;0.88;;;28.90;81.60;;;;;;5041586;28;20025;-78
2021/07/10 07:23:44;;;;;;;0.35;0.35;;;28.80;81.20;;;;;;5041596;28;20132;-77
2021/07/10 07:26:11;;;;;;;0.88;0.70;;;28.70;80.10;;;;;;5041113;28;20068;-76
2021/07/10 07:28:37;;;;;;;0.32;0.32;;;28.50;81.10;;;;;;5039162;28;20654;-77
2021/07/10 07:31:03;;;;;;;0.50;0.50;;;28.50;80.30;;;;;;5043887;28;20038;-78
2021/07/10 07:33:29;;;;;;;1.13;1.02;;;28.80;80.40;;;;;;5038449;28;20026;-78
2021/07/10 07:35:56;;;;;;;0.70;0.70;;;28.70;80.30;;;;;;5036141;28;20040;-80
2021/07/10 07:38:21;;;;;;;1.02;0.95;;;28.70;81.50;;;;;;5013501;28;20029;-79
2021/07/10 07:40:48;;;;;;;0.80;0.75;;;28.60;81.50;;;;;;5031529;28;20044;-78
2021/07/10 07:43:14;;;;;;;0.40;0.40;;;28.80;81.50;;;;;;5013132;28;20092;-79
2021/07/10 07:45:39;;;;;;;0.65;0.65;;;28.50;81.20;;;;;;5031209;28;20105;-82
2021/07/10 07:48:06;;;;;;;0.55;0.55;;;28.40;82.30;;;;;;5013362;28;20044;-79
2021/07/10 07:50:33;;;;;;;0.57;0.57;;;28.20;82.60;;;;;;5030742;28;20561;-81
2021/07/10 07:52:59;;;;;;;2.55;2.17;;;28.10;83.30;;;;;;5030742;28;20051;-85
2021/07/10 07:55:24;;;;;;;6.35;4.10;;;28.10;83.50;;;;;;5031007;28;20121;-88
2021/07/10 07:57:50;;;;;;;7.05;4.85;;;28.30;83.20;;;;;;5062674;28;20064;-83
2021/07/10 08:00:20;;;;;;;4.07;2.33;;;28.50;82.90;;;;;;5073811;28;20024;-79
2021/07/10 08:02:47;;;;;;;;;;;28.60;82.30;;;;;;5065392;28;20053;-81
2021/07/10 08:05:14;;;;;;;1.75;0.85;;;28.60;82.40;;;;;;5055073;28;19905;-82
2021/07/10 08:07:40;;;;;;;8.75;2.90;;;28.40;83.30;;;;;;5054989;28;20033;-80
2021/07/10 08:10:09;;;;;;;2.10;1.42;;;28.50;83.40;;;;;;5036727;28;20119;-83
2021/07/10 08:12:37;;;;;;;2.08;0.93;;;28.60;82.20;;;;;;5054600;28;20064;-81
2021/07/10 08:15:09;;;;;;;1.10;1.00;;;28.70;82.30;;;;;;5055266;28;20028;-88
2021/07/10 08:17:35;;;;;;;0.70;0.70;;;28.70;82.10;;;;;;5035783;28;20082;-78
2021/07/10 08:20:04;;;;;;;1.23;0.88;;;28.70;82.20;;;;;;5038653;28;20033;-84
2021/07/10 08:22:30;;;;;;;1.85;0.60;;;28.60;82.10;;;;;;5036769;28;20103;-83
2021/07/10 08:24:56;;;;;;;0.47;0.47;;;28.70;81.80;;;;;;5055131;28;20037;-82
2021/07/10 08:27:21;;;;;;;1.85;1.50;;;28.70;82.10;;;;;;5054951;28;20032;-83
2021/07/10 08:29:47;;;;;;;1.02;1.02;;;28.70;82.20;;;;;;5055061;28;20076;-81
2021/07/10 08:32:13;;;;;;;0.60;0.60;;;28.90;81.70;;;;;;5036040;28;20086;-81
2021/07/10 08:34:39;;;;;;;0.50;0.50;;;29.20;81.50;;;;;;5054772;28;20060;-81
2021/07/10 08:37:05;;;;;;;0.90;0.82;;;29.20;81.30;;;;;;5054651;28;20036;-83
2021/07/10 08:39:31;;;;;;;0.73;0.55;;;29.10;81.60;;;;;;5054651;28;20490;-81
2021/07/10 08:41:57;;;;;;;0.93;0.70;;;29.10;81.30;;;;;;5054117;28;20393;-81
2021/07/10 08:44:25;;;;;;;0.82;0.60;;;29.10;81.10;;;;;;5036761;28;20500;-81
2021/07/10 08:46:52;;;;;;;2.92;0.90;;;29.10;81.10;;;;;;5054736;28;20033;-77
2021/07/10 08:49:18;;;;;;;0.68;0.68;;;29.40;81.30;;;;;;5054203;28;20425;-78
2021/07/10 08:51:48;;;;;;;0.90;0.80;;;29.60;80.90;;;;;;5053802;28;20392;-77
2021/07/10 08:54:17;;;;;;;0.63;0.63;;;29.70;80.20;;;;;;5053684;28;20396;-77
2021/07/10 08:56:44;;;;;;;1.08;0.93;;;29.90;79.60;;;;;;5059067;28;20049;-78
2021/07/10 08:59:11;;;;;;;0.70;0.70;;;30.10;78.90;;;;;;5074125;28;20053;-80
2021/07/10 09:01:37;;;;;;;0.38;0.38;;;30.10;78.70;;;;;;5074128;28;20032;-79
2021/07/10 09:04:04;;;;;;;0.60;0.60;;;30.20;78.50;;;;;;5073499;28;20495;-81
2021/07/10 09:06:29;;;;;;;1.10;1.00;;;30.10;77.70;;;;;;5074625;28;20435;-78
2021/07/10 09:08:56;;;;;;;0.75;0.73;;;30.10;78.30;;;;;;5073854;28;20490;-80
2021/07/10 09:11:23;;;;;;;0.50;0.50;;;30.30;78.10;;;;;;5073456;28;20024;-79
2021/07/10 09:13:51;;;;;;;1.73;1.25;;;30.60;78.10;;;;;;5073837;28;20053;-79
2021/07/10 09:16:37;;;;;;;0.85;0.70;;;30.90;77.10;;;;;;5074164;28;20103;-76
2021/07/10 09:19:08;;;;;;;3.28;0.70;;;31.20;76.30;;;;;;5074205;28;20036;-80
2021/07/10 09:21:37;;;;;;;1.35;0.93;;;31.30;75.90;;;;;;5073825;28;20028;-77
2021/07/10 09:24:06;;;;;;;1.27;0.82;;;31.20;75.40;;;;;;5073782;28;20106;-75
2021/07/10 09:26:33;;;;;;;1.80;1.55;;;30.90;75.80;;;;;;5073586;28;20056;-76
2021/07/10 09:29:20;;;;;;;0.40;0.40;;;31.20;75.70;;;;;;5073305;28;20030;-79
2021/07/10 09:32:00;;;;;;;1.10;0.68;;;31.70;74.50;;;;;;5073584;28;20058;-76
2021/07/10 09:34:35;;;;;;;0.80;0.70;;;31.80;74.20;;;;;;5055422;28;20036;-80
2021/07/10 09:37:11;;;;;;;0.82;0.73;;;32.20;73.50;;;;;;5073412;28;20025;-79
2021/07/10 09:39:58;;;;;;;0.43;0.43;;;32.30;72.30;;;;;;5055181;28;20495;-77
2021/07/10 09:42:34;;;;;;;0.68;0.52;;;32.10;73.00;;;;;;5073096;28;20416;-76
2021/07/10 09:45:00;;;;;;;1.15;0.90;;;32.00;73.10;;;;;;5073449;28;20033;-78
2021/07/10 09:47:32;;;;;;;8.30;2.53;;;31.80;73.50;;;;;;5072795;28;20420;-76
2021/07/10 09:50:00;;;;;;;1.20;1.10;;;31.50;73.60;;;;;;5072810;28;20032;-78
2021/07/10 09:52:30;;;;;;;1.40;0.80;;;31.40;74.00;;;;;;5072980;28;20024;-75
2021/07/10 09:55:01;;;;;;;0.45;0.43;;;31.50;74.60;;;;;;5073406;28;20043;-77
2021/07/10 09:57:29;;;;;;;0.50;0.50;;;31.30;73.80;;;;;;5063129;28;20061;-79
2021/07/10 10:00:08;;;;;;;0.40;0.40;;;31.70;74.10;;;;;;5052642;28;20090;-76
2021/07/10 10:02:47;;;;;;;2.50;1.30;;;32.20;73.20;;;;;;5051953;28;20041;-78
2021/07/10 10:05:41;;;;;;;2.95;0.93;;;32.60;71.80;;;;;;5053038;28;20064;-75
2021/07/10 10:08:06;;;;;;;0.45;0.43;;;32.50;72.30;;;;;;5052448;28;20051;-75
2021/07/10 10:10:39;;;;;;;0.90;0.63;;;32.60;72.60;;;;;;5052022;28;20032;-77
2021/07/10 10:13:05;;;;;;;0.30;0.30;;;32.60;71.90;;;;;;5052291;28;20036;-75
2021/07/10 10:15:39;;;;;;;0.88;0.63;;;32.70;71.60;;;;;;5052548;28;20044;-77
2021/07/10 10:18:06;;;;;;;4.93;2.00;;;32.70;71.90;;;;;;5052192;28;20103;-75
2021/07/10 10:20:33;;;;;;;1.70;0.90;;;32.90;70.90;;;;;;5052404;28;20029;-76
2021/07/10 10:23:03;;;;;;;0.47;0.47;;;33.50;70.70;;;;;;5051439;28;20554;-78
2021/07/10 10:25:29;;;;;;;0.38;0.38;;;33.30;69.90;;;;;;5034490;28;20116;-74
2021/07/10 10:27:55;;;;;;;5.05;2.75;;;33.10;69.90;;;;;;5051887;28;20127;-80
2021/07/10 10:30:23;;;;;;;4.15;3.25;;;32.80;70.00;;;;;;5052810;28;20448;-77
2021/07/10 10:32:49;;;;;;;2.67;2.35;;;32.80;69.60;;;;;;5052096;28;20037;-77
2021/07/10 10:35:17;;;;;;;6.35;1.25;;;33.10;69.20;;;;;;5052351;28;20116;-75
2021/07/10 10:37:43;;;;;;;1.05;0.75;;;33.30;68.70;;;;;;5051724;28;20090;-76
2021/07/10 10:40:11;;;;;;;0.70;0.70;;;33.50;67.60;;;;;;5052309;28;20033;-74
2021/07/10 10:42:38;;;;;;;0.77;0.63;;;33.30;67.60;;;;;;5034075;28;20095;-75
2021/07/10 10:45:06;;;;;;;0.50;0.50;;;33.50;67.00;;;;;;5033919;28;20471;-75
2021/07/10 10:47:40;;;;;;;0.50;0.45;;;33.30;67.30;;;;;;5051830;28;20040;-74
2021/07/10 10:50:28;;;;;;;0.38;0.38;;;33.60;66.90;;;;;;5051658;28;20029;-78
2021/07/10 10:52:56;;;;;;;0.22;0.22;;;33.90;66.70;;;;;;5051850;28;20061;-77
2021/07/10 10:55:42;;;;;;;0.52;0.50;;;33.90;66.30;;;;;;5051372;28;20400;-76
2021/07/10 10:58:30;;;;;;;0.50;0.50;;;34.10;66.20;;;;;;5047226;28;20114;-76
2021/07/10 11:01:00;;;;;;;1.80;1.42;;;34.00;64.40;;;;;;5072125;28;20537;-81
2021/07/10 11:03:36;;;;;;;0.95;0.85;;;33.40;64.80;;;;;;5071634;28;20055;-80
2021/07/10 11:06:02;;;;;;;0.93;0.82;;;33.30;65.90;;;;;;5072108;28;20029;-81
2021/07/10 11:08:36;;;;;;;1.88;1.48;;;33.10;66.60;;;;;;5071256;28;20095;-82
2021/07/10 11:11:02;;;;;;;1.00;0.90;;;33.30;66.10;;;;;;5071835;28;20032;-81
2021/07/10 11:13:46;;;;;;;0.80;0.75;;;33.20;66.20;;;;;;5071565;28;20216;-82
2021/07/10 11:16:20;;;;;;;0.55;0.55;;;33.30;66.80;;;;;;5071264;28;20024;-81
2021/07/10 11:18:59;;;;;;;1.00;0.90;;;33.70;66.10;;;;;;5071207;28;20495;-83
2021/07/10 11:24:20;;;;;;;0.30;0.30;;;34.40;64.90;;;;;;5071381;28;20535;-78
2021/07/10 11:26:57;;;;;;;1.33;0.95;;;35.00;64.40;;;;;;5052760;28;20078;-79
2021/07/10 11:29:28;;;;;;;0.40;0.40;;;34.90;63.50;;;;;;5053268;28;20044;-80
2021/07/10 11:32:14;;;;;;;0.63;0.63;;;34.60;64.20;;;;;;5053675;28;20036;-79
2021/07/10 11:34:47;;;;;;;0.52;0.52;;;34.50;64.10;;;;;;5070970;28;20392;-83
2021/07/10 11:37:28;;;;;;;0.95;0.77;;;34.40;64.70;;;;;;5071192;28;20058;-79
2021/07/10 11:39:53;;;;;;;0.63;0.63;;;34.90;64.30;;;;;;5071852;28;20048;-80
2021/07/10 11:42:28;;;;;;;2.35;1.63;;;35.20;63.80;;;;;;5053489;28;20138;-83
2021/07/10 11:45:19;;;;;;;0.30;0.30;;;34.80;63.40;;;;;;5053472;28;20044;-78
2021/07/10 11:47:53;;;;;;;2.58;1.73;;;34.90;63.50;;;;;;5053185;28;20123;-78
2021/07/10 11:50:27;;;;;;;4.63;1.02;;;35.20;62.90;;;;;;5071665;28;20208;-79
2021/07/10 11:53:03;;;;;;;2.03;1.60;;;35.40;62.60;;;;;;5070984;28;20104;-79
2021/07/10 11:55:33;;;;;;;2.28;1.15;;;35.50;62.70;;;;;;5071482;28;20396;-82
2021/07/10 11:58:06;;;;;;;;;;;35.20;62.50;;;;;;5060243;28;20502;-82
2021/07/10 12:00:32;;;;;;;1.17;1.08;;;34.70;63.70;;;;;;5050835;28;19909;-79
2021/07/10 12:02:58;;;;;;;1.20;1.10;;;34.90;63.80;;;;;;5050864;28;20083;-79
2021/07/10 12:05:24;;;;;;;5.30;2.10;;;35.30;63.40;;;;;;5051001;28;20060;-82
2021/07/10 12:07:54;;;;;;;1.20;0.90;;;35.70;63.30;;;;;;5050903;28;20389;-80
2021/07/10 12:10:41;;;;;;;1.17;1.00;;;35.50;62.60;;;;;;5051523;28;20419;-79
2021/07/10 12:13:12;;;;;;;0.47;0.47;;;35.80;63.00;;;;;;5050796;28;20032;-78
2021/07/10 12:15:55;;;;;;;1.23;0.63;;;35.80;62.50;;;;;;5050620;28;20033;-77
2021/07/10 12:18:22;;;;;;;2.95;1.73;;;35.70;62.00;;;;;;5050724;28;20029;-83
2021/07/10 12:20:57;;;;;;;5.85;1.40;;;35.50;62.00;;;;;;5050976;28;20469;-79
2021/07/10 12:23:26;;;;;;;0.60;0.50;;;35.40;62.10;;;;;;5050985;28;20484;-78
2021/07/10 12:25:59;;;;;;;0.77;0.70;;;35.60;62.50;;;;;;5050610;28;20392;-79
2021/07/10 12:28:30;;;;;;;0.20;0.20;;;35.90;60.70;;;;;;5050830;28;20121;-78
2021/07/10 12:30:57;;;;;;;0.45;0.45;;;35.80;60.60;;;;;;5050917;28;20095;-79
2021/07/10 12:33:39;;;;;;;1.52;1.25;;;35.00;61.40;;;;;;5050353;28;20721;-78
2021/07/10 12:36:06;;;;;;;36.25;2.25;;;34.60;62.40;;;;;;5050811;28;20040;-77
2021/07/10 12:38:33;;;;;;;2.08;1.88;;;34.20;63.70;;;;;;5051044;28;20064;-80
2021/07/10 12:41:17;;;;;;;2.33;1.33;;;34.30;63.30;;;;;;5050395;28;20048;-78
2021/07/10 12:43:43;;;;;;;3.60;1.90;;;34.00;64.00;;;;;;5050306;28;20089;-79
2021/07/10 12:46:09;;;;;;;0.65;0.65;;;33.90;68.00;;;;;;5053000;28;20041;-82
2021/07/10 12:48:34;;;;;;;1.85;1.02;;;34.30;64.00;;;;;;5054570;28;20500;-80
2021/07/10 12:51:01;;;;;;;2.00;1.05;;;34.60;61.80;;;;;;5054338;28;20390;-80
2021/07/10 12:53:31;;;;;;;0.50;0.50;;;34.50;59.90;;;;;;5054406;28;20056;-84
2021/07/10 12:56:27;;;;;;;0.85;0.70;;;35.10;58.70;;;;;;5053941;28;20485;-83